Terminal Aerodrome Forecast
Issued by NWS Louisville, KY

Home | Current Version | Previous Version | Text Only | Print | Product List | Glossary On
Versions: 1 2 3 4 5 6 7 8 9 10 11 12 13 14 15 16 17 18 19 20 21
000
FTUS43 KLMK 231700
TAFSDF
TAF
KSDF 231723Z 2318/2424 05005KT 6SM HZ VCSH SCT025 OVC070
     FM232000 01005KT 5SM -RASNPL BR SCT012 BKN021
     FM232300 02005KT 4SM -SNPL BR BKN025
      TEMPO 2323/2403 2SM -SN BR BKN012
     FM240300 36005KT P6SM SCT025 BKN060
     FM241200 25007KT P6SM SCT025 BKN100=

USA.gov is the U.S. government's official web portal to all federal, state and local government web resources and services.